sensor_id;sensor_type;location;lat;lon;timestamp;P1;durP1;ratioP1;P2;durP2;ratioP2
17987;SDS011;9119;50.932;5.342;2023-03-01T00:01:11;16.93;;;8.60;;
17987;SDS011;9119;50.932;5.342;2023-03-01T00:03:38;14.50;;;8.53;;
17987;SDS011;9119;50.932;5.342;2023-03-01T00:06:04;22.23;;;8.13;;
17987;SDS011;9119;50.932;5.342;2023-03-01T00:08:31;15.23;;;8.23;;
17987;SDS011;9119;50.932;5.342;2023-03-01T00:11:04;14.47;;;7.87;;
17987;SDS011;9119;50.932;5.342;2023-03-01T00:13:32;15.73;;;8.43;;
17987;SDS011;9119;50.932;5.342;2023-03-01T00:15:58;23.87;;;8.87;;
17987;SDS011;9119;50.932;5.342;2023-03-01T00:18:24;15.93;;;8.93;;
17987;SDS011;9119;50.932;5.342;2023-03-01T00:20:53;20.20;;;8.53;;
17987;SDS011;9119;50.932;5.342;2023-03-01T00:23:20;16.70;;;8.83;;
17987;SDS011;9119;50.932;5.342;2023-03-01T00:25:47;14.30;;;8.37;;
17987;SDS011;9119;50.932;5.342;2023-03-01T00:28:13;16.83;;;8.63;;
17987;SDS011;9119;50.932;5.342;2023-03-01T00:30:39;17.30;;;8.57;;
17987;SDS011;9119;50.932;5.342;2023-03-01T00:33:05;15.47;;;8.87;;
17987;SDS011;9119;50.932;5.342;2023-03-01T00:35:32;19.30;;;9.37;;
17987;SDS011;9119;50.932;5.342;2023-03-01T00:37:58;17.13;;;8.53;;
17987;SDS011;9119;50.932;5.342;2023-03-01T00:40:24;19.47;;;9.83;;
17987;SDS011;9119;50.932;5.342;2023-03-01T00:42:50;16.53;;;9.60;;
17987;SDS011;9119;50.932;5.342;2023-03-01T00:45:16;20.50;;;8.83;;
17987;SDS011;9119;50.932;5.342;2023-03-01T00:47:42;19.50;;;9.10;;
17987;SDS011;9119;50.932;5.342;2023-03-01T00:50:09;16.97;;;9.03;;
17987;SDS011;9119;50.932;5.342;2023-03-01T00:52:36;18.20;;;8.73;;
17987;SDS011;9119;50.932;5.342;2023-03-01T00:55:01;22.50;;;9.07;;
17987;SDS011;9119;50.932;5.342;2023-03-01T00:57:27;15.00;;;8.73;;
17987;SDS011;9119;50.932;5.342;2023-03-01T00:59:53;17.13;;;7.53;;
17987;SDS011;9119;50.932;5.342;2023-03-01T01:02:19;16.70;;;8.97;;
17987;SDS011;9119;50.932;5.342;2023-03-01T01:04:45;14.60;;;8.57;;
17987;SDS011;9119;50.932;5.342;2023-03-01T01:07:11;22.33;;;9.13;;
17987;SDS011;9119;50.932;5.342;2023-03-01T01:09:37;13.70;;;8.13;;
17987;SDS011;9119;50.932;5.342;2023-03-01T01:12:04;17.27;;;8.83;;
17987;SDS011;9119;50.932;5.342;2023-03-01T01:14:29;16.30;;;8.87;;
17987;SDS011;9119;50.932;5.342;2023-03-01T01:16:55;17.27;;;8.83;;
17987;SDS011;9119;50.932;5.342;2023-03-01T01:19:21;15.07;;;8.67;;
17987;SDS011;9119;50.932;5.342;2023-03-01T01:21:48;17.80;;;9.47;;
17987;SDS011;9119;50.932;5.342;2023-03-01T01:24:14;18.87;;;9.70;;
17987;SDS011;9119;50.932;5.342;2023-03-01T01:26:41;18.87;;;9.27;;
17987;SDS011;9119;50.932;5.342;2023-03-01T01:29:07;21.70;;;9.87;;
17987;SDS011;9119;50.932;5.342;2023-03-01T01:31:33;17.20;;;9.17;;
17987;SDS011;9119;50.932;5.342;2023-03-01T01:34:00;16.07;;;8.80;;
17987;SDS011;9119;50.932;5.342;2023-03-01T01:36:27;16.30;;;9.03;;
17987;SDS011;9119;50.932;5.342;2023-03-01T01:38:53;16.17;;;9.30;;
17987;SDS011;9119;50.932;5.342;2023-03-01T01:41:19;18.40;;;8.73;;
17987;SDS011;9119;50.932;5.342;2023-03-01T01:43:47;16.23;;;9.33;;
17987;SDS011;9119;50.932;5.342;2023-03-01T01:48:41;20.87;;;9.63;;
17987;SDS011;9119;50.932;5.342;2023-03-01T01:51:13;24.50;;;10.50;;
17987;SDS011;9119;50.932;5.342;2023-03-01T01:53:44;17.53;;;9.40;;
17987;SDS011;9119;50.932;5.342;2023-03-01T01:56:15;18.50;;;9.20;;
17987;SDS011;9119;50.932;5.342;2023-03-01T01:58:43;21.87;;;9.90;;
17987;SDS011;9119;50.932;5.342;2023-03-01T02:01:10;20.67;;;9.63;;
17987;SDS011;9119;50.932;5.342;2023-03-01T02:03:37;15.40;;;9.27;;
17987;SDS011;9119;50.932;5.342;2023-03-01T02:08:45;19.47;;;9.13;;
17987;SDS011;9119;50.932;5.342;2023-03-01T02:11:13;16.93;;;9.50;;
17987;SDS011;9119;50.932;5.342;2023-03-01T02:13:40;19.33;;;9.50;;
17987;SDS011;9119;50.932;5.342;2023-03-01T02:16:13;23.83;;;9.87;;
17987;SDS011;9119;50.932;5.342;2023-03-01T02:18:40;20.47;;;9.90;;
17987;SDS011;9119;50.932;5.342;2023-03-01T02:21:10;17.07;;;8.83;;
17987;SDS011;9119;50.932;5.342;2023-03-01T02:23:39;19.33;;;9.53;;
17987;SDS011;9119;50.932;5.342;2023-03-01T02:29:20;18.97;;;10.23;;
17987;SDS011;9119;50.932;5.342;2023-03-01T02:31:47;19.60;;;9.83;;
17987;SDS011;9119;50.932;5.342;2023-03-01T02:34:18;18.43;;;10.43;;
17987;SDS011;9119;50.932;5.342;2023-03-01T02:37:08;17.47;;;9.80;;
17987;SDS011;9119;50.932;5.342;2023-03-01T02:39:41;18.60;;;9.90;;
17987;SDS011;9119;50.932;5.342;2023-03-01T02:42:13;21.07;;;10.30;;
17987;SDS011;9119;50.932;5.342;2023-03-01T02:44:41;18.87;;;10.13;;
17987;SDS011;9119;50.932;5.342;2023-03-01T02:47:10;19.17;;;9.60;;
17987;SDS011;9119;50.932;5.342;2023-03-01T02:49:36;19.50;;;10.60;;
17987;SDS011;9119;50.932;5.342;2023-03-01T02:54:59;18.57;;;10.13;;
17987;SDS011;9119;50.932;5.342;2023-03-01T02:57:33;18.77;;;10.53;;
17987;SDS011;9119;50.932;5.342;2023-03-01T03:00:02;20.53;;;9.67;;
17987;SDS011;9119;50.932;5.342;2023-03-01T03:02:34;22.67;;;10.33;;
17987;SDS011;9119;50.932;5.342;2023-03-01T03:05:07;18.90;;;9.37;;
17987;SDS011;9119;50.932;5.342;2023-03-01T03:07:36;17.23;;;10.03;;
17987;SDS011;9119;50.932;5.342;2023-03-01T03:10:04;19.57;;;10.53;;
17987;SDS011;9119;50.932;5.342;2023-03-01T03:12:32;17.93;;;9.93;;
17987;SDS011;9119;50.932;5.342;2023-03-01T03:14:58;21.40;;;10.47;;
17987;SDS011;9119;50.932;5.342;2023-03-01T03:17:23;19.60;;;10.63;;
17987;SDS011;9119;50.932;5.342;2023-03-01T03:19:52;21.73;;;10.43;;
17987;SDS011;9119;50.932;5.342;2023-03-01T03:22:17;18.37;;;9.90;;
17987;SDS011;9119;50.932;5.342;2023-03-01T03:24:43;18.50;;;9.67;;
17987;SDS011;9119;50.932;5.342;2023-03-01T03:27:09;19.43;;;10.37;;
17987;SDS011;9119;50.932;5.342;2023-03-01T03:29:34;19.03;;;9.43;;
17987;SDS011;9119;50.932;5.342;2023-03-01T03:32:00;19.00;;;10.13;;
17987;SDS011;9119;50.932;5.342;2023-03-01T03:34:26;20.90;;;10.40;;
17987;SDS011;9119;50.932;5.342;2023-03-01T03:36:54;18.07;;;9.83;;
17987;SDS011;9119;50.932;5.342;2023-03-01T03:39:25;21.80;;;10.60;;
17987;SDS011;9119;50.932;5.342;2023-03-01T03:41:52;19.53;;;10.47;;
17987;SDS011;9119;50.932;5.342;2023-03-01T03:44:18;19.47;;;10.07;;
17987;SDS011;9119;50.932;5.342;2023-03-01T03:46:44;21.50;;;10.33;;
17987;SDS011;9119;50.932;5.342;2023-03-01T03:49:10;22.03;;;10.83;;
17987;SDS011;9119;50.932;5.342;2023-03-01T03:51:35;23.03;;;10.90;;
17987;SDS011;9119;50.932;5.342;2023-03-01T03:54:01;20.73;;;10.07;;
17987;SDS011;9119;50.932;5.342;2023-03-01T03:56:27;17.77;;;10.63;;
17987;SDS011;9119;50.932;5.342;2023-03-01T03:58:52;24.17;;;10.93;;
17987;SDS011;9119;50.932;5.342;2023-03-01T04:01:18;20.47;;;11.30;;
17987;SDS011;9119;50.932;5.342;2023-03-01T04:03:44;22.60;;;10.90;;
17987;SDS011;9119;50.932;5.342;2023-03-01T04:06:13;20.40;;;10.27;;
17987;SDS011;9119;50.932;5.342;2023-03-01T04:08:39;19.90;;;10.00;;
17987;SDS011;9119;50.932;5.342;2023-03-01T04:11:06;22.70;;;11.03;;
17987;SDS011;9119;50.932;5.342;2023-03-01T04:13:51;19.40;;;10.60;;
17987;SDS011;9119;50.932;5.342;2023-03-01T04:16:17;25.87;;;10.57;;
17987;SDS011;9119;50.932;5.342;2023-03-01T04:18:44;23.67;;;11.97;;
17987;SDS011;9119;50.932;5.342;2023-03-01T04:21:10;20.73;;;11.50;;
17987;SDS011;9119;50.932;5.342;2023-03-01T04:23:36;24.23;;;12.17;;
17987;SDS011;9119;50.932;5.342;2023-03-01T04:26:03;25.53;;;11.97;;
17987;SDS011;9119;50.932;5.342;2023-03-01T04:30:56;23.37;;;11.40;;
17987;SDS011;9119;50.932;5.342;2023-03-01T04:33:23;23.17;;;11.40;;
17987;SDS011;9119;50.932;5.342;2023-03-01T04:35:50;20.20;;;10.90;;
17987;SDS011;9119;50.932;5.342;2023-03-01T04:38:17;26.77;;;12.03;;
17987;SDS011;9119;50.932;5.342;2023-03-01T04:40:44;23.47;;;11.33;;
17987;SDS011;9119;50.932;5.342;2023-03-01T04:43:10;18.07;;;10.37;;
17987;SDS011;9119;50.932;5.342;2023-03-01T04:45:38;24.23;;;11.30;;
17987;SDS011;9119;50.932;5.342;2023-03-01T04:48:04;23.30;;;11.87;;
17987;SDS011;9119;50.932;5.342;2023-03-01T04:50:29;22.00;;;11.67;;
17987;SDS011;9119;50.932;5.342;2023-03-01T04:52:55;17.97;;;11.37;;
17987;SDS011;9119;50.932;5.342;2023-03-01T04:55:25;23.87;;;12.07;;
17987;SDS011;9119;50.932;5.342;2023-03-01T04:57:52;22.00;;;11.27;;
17987;SDS011;9119;50.932;5.342;2023-03-01T05:00:18;22.03;;;11.17;;
17987;SDS011;9119;50.932;5.342;2023-03-01T05:02:52;27.70;;;11.93;;
17987;SDS011;9119;50.932;5.342;2023-03-01T05:07:51;23.40;;;13.10;;
17987;SDS011;9119;50.932;5.342;2023-03-01T05:10:20;33.63;;;12.30;;
17987;SDS011;9119;50.932;5.342;2023-03-01T05:12:46;25.50;;;11.23;;
17987;SDS011;9119;50.932;5.342;2023-03-01T05:15:11;23.27;;;12.33;;
17987;SDS011;9119;50.932;5.342;2023-03-01T05:17:37;23.63;;;11.93;;
17987;SDS011;9119;50.932;5.342;2023-03-01T05:20:03;23.07;;;11.87;;
17987;SDS011;9119;50.932;5.342;2023-03-01T05:22:33;26.17;;;12.27;;
17987;SDS011;9119;50.932;5.342;2023-03-01T05:24:59;24.67;;;12.03;;
17987;SDS011;9119;50.932;5.342;2023-03-01T05:27:25;22.77;;;11.73;;
17987;SDS011;9119;50.932;5.342;2023-03-01T05:29:51;23.33;;;11.50;;
17987;SDS011;9119;50.932;5.342;2023-03-01T05:32:16;23.80;;;12.40;;
17987;SDS011;9119;50.932;5.342;2023-03-01T05:34:42;26.30;;;12.20;;
17987;SDS011;9119;50.932;5.342;2023-03-01T05:37:09;23.93;;;11.13;;
17987;SDS011;9119;50.932;5.342;2023-03-01T05:39:34;22.03;;;11.33;;
17987;SDS011;9119;50.932;5.342;2023-03-01T05:42:01;24.43;;;11.67;;
17987;SDS011;9119;50.932;5.342;2023-03-01T05:44:27;28.73;;;12.37;;
17987;SDS011;9119;50.932;5.342;2023-03-01T05:46:54;25.80;;;12.20;;
17987;SDS011;9119;50.932;5.342;2023-03-01T05:49:20;23.57;;;11.77;;
17987;SDS011;9119;50.932;5.342;2023-03-01T05:51:49;22.37;;;11.43;;
17987;SDS011;9119;50.932;5.342;2023-03-01T05:54:16;25.93;;;12.63;;
17987;SDS011;9119;50.932;5.342;2023-03-01T05:56:43;23.00;;;11.67;;
17987;SDS011;9119;50.932;5.342;2023-03-01T05:59:09;32.80;;;12.53;;
17987;SDS011;9119;50.932;5.342;2023-03-01T06:01:36;26.33;;;11.97;;
17987;SDS011;9119;50.932;5.342;2023-03-01T06:04:03;28.77;;;12.53;;
17987;SDS011;9119;50.932;5.342;2023-03-01T06:06:29;23.33;;;11.73;;
17987;SDS011;9119;50.932;5.342;2023-03-01T06:08:58;27.87;;;12.23;;
17987;SDS011;9119;50.932;5.342;2023-03-01T06:11:23;24.07;;;12.37;;
17987;SDS011;9119;50.932;5.342;2023-03-01T06:13:49;27.23;;;11.60;;
17987;SDS011;9119;50.932;5.342;2023-03-01T06:16:15;26.33;;;11.97;;
17987;SDS011;9119;50.932;5.342;2023-03-01T06:18:40;29.37;;;12.43;;
17987;SDS011;9119;50.932;5.342;2023-03-01T06:21:07;27.17;;;11.90;;
17987;SDS011;9119;50.932;5.342;2023-03-01T06:23:33;29.27;;;13.80;;
17987;SDS011;9119;50.932;5.342;2023-03-01T06:25:59;29.60;;;12.37;;
17987;SDS011;9119;50.932;5.342;2023-03-01T06:28:25;36.87;;;12.80;;
17987;SDS011;9119;50.932;5.342;2023-03-01T06:30:51;34.23;;;12.30;;
17987;SDS011;9119;50.932;5.342;2023-03-01T06:33:17;25.70;;;12.60;;
17987;SDS011;9119;50.932;5.342;2023-03-01T06:35:45;26.17;;;12.30;;
17987;SDS011;9119;50.932;5.342;2023-03-01T06:38:11;27.03;;;12.17;;
17987;SDS011;9119;50.932;5.342;2023-03-01T06:40:40;33.40;;;12.97;;
17987;SDS011;9119;50.932;5.342;2023-03-01T06:43:06;26.00;;;11.90;;
17987;SDS011;9119;50.932;5.342;2023-03-01T06:45:32;25.77;;;12.90;;
17987;SDS011;9119;50.932;5.342;2023-03-01T06:48:05;22.90;;;11.80;;
17987;SDS011;9119;50.932;5.342;2023-03-01T06:50:31;33.87;;;13.73;;
17987;SDS011;9119;50.932;5.342;2023-03-01T06:52:58;27.90;;;13.03;;
17987;SDS011;9119;50.932;5.342;2023-03-01T06:55:24;29.20;;;13.50;;
17987;SDS011;9119;50.932;5.342;2023-03-01T06:58:08;31.33;;;13.67;;
17987;SDS011;9119;50.932;5.342;2023-03-01T07:00:35;30.63;;;12.93;;
17987;SDS011;9119;50.932;5.342;2023-03-01T07:03:01;27.33;;;13.40;;
17987;SDS011;9119;50.932;5.342;2023-03-01T07:05:27;27.00;;;12.77;;
17987;SDS011;9119;50.932;5.342;2023-03-01T07:07:53;29.40;;;12.03;;
17987;SDS011;9119;50.932;5.342;2023-03-01T07:10:20;26.13;;;13.00;;
17987;SDS011;9119;50.932;5.342;2023-03-01T07:12:46;27.37;;;13.13;;
17987;SDS011;9119;50.932;5.342;2023-03-01T07:15:11;27.73;;;12.20;;
17987;SDS011;9119;50.932;5.342;2023-03-01T07:17:37;26.07;;;13.43;;
17987;SDS011;9119;50.932;5.342;2023-03-01T07:20:03;31.90;;;13.00;;
17987;SDS011;9119;50.932;5.342;2023-03-01T07:22:29;26.23;;;13.40;;
17987;SDS011;9119;50.932;5.342;2023-03-01T07:24:55;25.90;;;13.20;;
17987;SDS011;9119;50.932;5.342;2023-03-01T07:27:21;35.43;;;14.13;;
17987;SDS011;9119;50.932;5.342;2023-03-01T07:29:46;27.87;;;12.87;;
17987;SDS011;9119;50.932;5.342;2023-03-01T07:32:12;24.90;;;13.40;;
17987;SDS011;9119;50.932;5.342;2023-03-01T07:34:37;27.07;;;13.83;;
17987;SDS011;9119;50.932;5.342;2023-03-01T07:37:03;25.43;;;12.70;;
17987;SDS011;9119;50.932;5.342;2023-03-01T07:39:29;25.77;;;12.87;;
17987;SDS011;9119;50.932;5.342;2023-03-01T07:41:54;30.17;;;13.27;;
17987;SDS011;9119;50.932;5.342;2023-03-01T07:44:20;32.07;;;14.60;;
17987;SDS011;9119;50.932;5.342;2023-03-01T07:46:46;31.27;;;14.27;;
17987;SDS011;9119;50.932;5.342;2023-03-01T07:49:12;26.37;;;13.30;;
17987;SDS011;9119;50.932;5.342;2023-03-01T07:51:38;27.73;;;13.23;;
17987;SDS011;9119;50.932;5.342;2023-03-01T07:54:03;29.50;;;13.43;;
17987;SDS011;9119;50.932;5.342;2023-03-01T07:56:29;28.40;;;13.00;;
17987;SDS011;9119;50.932;5.342;2023-03-01T07:58:55;35.90;;;13.37;;
17987;SDS011;9119;50.932;5.342;2023-03-01T08:01:21;36.10;;;14.00;;
17987;SDS011;9119;50.932;5.342;2023-03-01T08:03:47;40.97;;;13.97;;
17987;SDS011;9119;50.932;5.342;2023-03-01T08:06:14;27.40;;;14.00;;
17987;SDS011;9119;50.932;5.342;2023-03-01T08:08:41;69.23;;;17.37;;
17987;SDS011;9119;50.932;5.342;2023-03-01T08:11:07;31.07;;;13.67;;
17987;SDS011;9119;50.932;5.342;2023-03-01T08:13:35;29.73;;;13.30;;
17987;SDS011;9119;50.932;5.342;2023-03-01T08:16:05;27.50;;;13.07;;
17987;SDS011;9119;50.932;5.342;2023-03-01T08:18:33;30.53;;;14.17;;
17987;SDS011;9119;50.932;5.342;2023-03-01T08:21:06;34.53;;;13.67;;
17987;SDS011;9119;50.932;5.342;2023-03-01T08:23:36;27.37;;;12.57;;
17987;SDS011;9119;50.932;5.342;2023-03-01T08:26:12;25.33;;;12.37;;
17987;SDS011;9119;50.932;5.342;2023-03-01T08:28:40;28.47;;;12.43;;
17987;SDS011;9119;50.932;5.342;2023-03-01T08:34:08;32.03;;;12.87;;
17987;SDS011;9119;50.932;5.342;2023-03-01T08:36:38;31.37;;;12.77;;
17987;SDS011;9119;50.932;5.342;2023-03-01T08:39:05;31.57;;;12.23;;
17987;SDS011;9119;50.932;5.342;2023-03-01T08:41:32;26.13;;;11.50;;
17987;SDS011;9119;50.932;5.342;2023-03-01T08:43:58;28.63;;;12.70;;
17987;SDS011;9119;50.932;5.342;2023-03-01T08:46:24;32.37;;;12.90;;
17987;SDS011;9119;50.932;5.342;2023-03-01T08:48:51;25.97;;;12.33;;
17987;SDS011;9119;50.932;5.342;2023-03-01T08:51:17;26.73;;;12.20;;
17987;SDS011;9119;50.932;5.342;2023-03-01T08:53:44;27.00;;;11.67;;
17987;SDS011;9119;50.932;5.342;2023-03-01T08:56:10;28.13;;;13.00;;
17987;SDS011;9119;50.932;5.342;2023-03-01T08:58:36;29.70;;;12.33;;
17987;SDS011;9119;50.932;5.342;2023-03-01T09:01:06;24.07;;;13.37;;
17987;SDS011;9119;50.932;5.342;2023-03-01T09:03:33;46.70;;;14.87;;
17987;SDS011;9119;50.932;5.342;2023-03-01T09:06:02;32.27;;;12.30;;
17987;SDS011;9119;50.932;5.342;2023-03-01T09:08:30;20.17;;;10.67;;
17987;SDS011;9119;50.932;5.342;2023-03-01T09:11:00;29.67;;;12.53;;
17987;SDS011;9119;50.932;5.342;2023-03-01T09:13:27;25.47;;;11.10;;
17987;SDS011;9119;50.932;5.342;2023-03-01T09:15:56;22.83;;;10.83;;
17987;SDS011;9119;50.932;5.342;2023-03-01T09:18:26;30.13;;;9.90;;
17987;SDS011;9119;50.932;5.342;2023-03-01T09:20:51;16.93;;;9.60;;
17987;SDS011;9119;50.932;5.342;2023-03-01T09:23:19;23.93;;;10.40;;
17987;SDS011;9119;50.932;5.342;2023-03-01T09:25:46;25.47;;;10.53;;
17987;SDS011;9119;50.932;5.342;2023-03-01T09:28:12;21.57;;;11.33;;
17987;SDS011;9119;50.932;5.342;2023-03-01T09:30:38;23.57;;;11.47;;
17987;SDS011;9119;50.932;5.342;2023-03-01T09:33:03;22.17;;;11.33;;
17987;SDS011;9119;50.932;5.342;2023-03-01T09:35:29;24.47;;;11.97;;
17987;SDS011;9119;50.932;5.342;2023-03-01T09:37:55;33.53;;;12.43;;
17987;SDS011;9119;50.932;5.342;2023-03-01T09:40:21;28.43;;;12.43;;
17987;SDS011;9119;50.932;5.342;2023-03-01T09:43:15;24.53;;;12.27;;
17987;SDS011;9119;50.932;5.342;2023-03-01T09:45:53;24.20;;;11.73;;
17987;SDS011;9119;50.932;5.342;2023-03-01T09:48:21;25.10;;;11.37;;
17987;SDS011;9119;50.932;5.342;2023-03-01T09:50:51;25.20;;;12.17;;
17987;SDS011;9119;50.932;5.342;2023-03-01T09:53:21;19.90;;;11.20;;
17987;SDS011;9119;50.932;5.342;2023-03-01T09:58:29;26.47;;;12.10;;
17987;SDS011;9119;50.932;5.342;2023-03-01T10:01:21;30.67;;;12.53;;
17987;SDS011;9119;50.932;5.342;2023-03-01T10:06:51;27.30;;;11.73;;
17987;SDS011;9119;50.932;5.342;2023-03-01T10:09:32;24.47;;;12.13;;
17987;SDS011;9119;50.932;5.342;2023-03-01T10:12:00;27.87;;;11.93;;
17987;SDS011;9119;50.932;5.342;2023-03-01T10:17:27;31.40;;;12.67;;
17987;SDS011;9119;50.932;5.342;2023-03-01T10:20:35;24.13;;;11.83;;
17987;SDS011;9119;50.932;5.342;2023-03-01T10:22:58;28.60;;;12.63;;
17987;SDS011;9119;50.932;5.342;2023-03-01T10:25:36;31.00;;;13.23;;
17987;SDS011;9119;50.932;5.342;2023-03-01T10:28:17;28.73;;;11.80;;
17987;SDS011;9119;50.932;5.342;2023-03-01T10:30:50;28.90;;;12.57;;
17987;SDS011;9119;50.932;5.342;2023-03-01T10:33:17;28.10;;;12.57;;
17987;SDS011;9119;50.932;5.342;2023-03-01T10:35:48;30.97;;;12.57;;
17987;SDS011;9119;50.932;5.342;2023-03-01T10:38:14;28.33;;;12.00;;
17987;SDS011;9119;50.932;5.342;2023-03-01T10:40:52;28.13;;;13.03;;
17987;SDS011;9119;50.932;5.342;2023-03-01T10:43:47;33.67;;;12.43;;
17987;SDS011;9119;50.932;5.342;2023-03-01T10:46:33;29.53;;;12.23;;
17987;SDS011;9119;50.932;5.342;2023-03-01T10:51:46;31.03;;;12.90;;
17987;SDS011;9119;50.932;5.342;2023-03-01T10:54:27;31.43;;;12.70;;
17987;SDS011;9119;50.932;5.342;2023-03-01T10:56:56;29.17;;;13.13;;
17987;SDS011;9119;50.932;5.342;2023-03-01T11:04:34;25.50;;;12.07;;
17987;SDS011;9119;50.932;5.342;2023-03-01T11:07:00;26.80;;;13.30;;
17987;SDS011;9119;50.932;5.342;2023-03-01T11:09:30;28.43;;;12.67;;
17987;SDS011;9119;50.932;5.342;2023-03-01T11:12:02;29.20;;;12.60;;
17987;SDS011;9119;50.932;5.342;2023-03-01T11:14:33;25.37;;;11.93;;
17987;SDS011;9119;50.932;5.342;2023-03-01T11:17:10;27.80;;;13.03;;
17987;SDS011;9119;50.932;5.342;2023-03-01T11:19:38;27.40;;;12.23;;
17987;SDS011;9119;50.932;5.342;2023-03-01T11:24:53;24.93;;;12.03;;
17987;SDS011;9119;50.932;5.342;2023-03-01T11:30:00;25.87;;;12.13;;
17987;SDS011;9119;50.932;5.342;2023-03-01T11:32:45;26.00;;;13.23;;
17987;SDS011;9119;50.932;5.342;2023-03-01T11:35:23;28.77;;;12.07;;
17987;SDS011;9119;50.932;5.342;2023-03-01T11:40:27;27.67;;;12.13;;
17987;SDS011;9119;50.932;5.342;2023-03-01T11:45:59;24.43;;;12.43;;
17987;SDS011;9119;50.932;5.342;2023-03-01T11:48:57;21.13;;;11.23;;
17987;SDS011;9119;50.932;5.342;2023-03-01T12:05:24;25.77;;;12.30;;
17987;SDS011;9119;50.932;5.342;2023-03-01T12:08:08;25.23;;;11.77;;
17987;SDS011;9119;50.932;5.342;2023-03-01T12:18:48;24.53;;;11.97;;
17987;SDS011;9119;50.932;5.342;2023-03-01T12:24:31;20.97;;;10.13;;
17987;SDS011;9119;50.932;5.342;2023-03-01T12:27:54;25.43;;;11.80;;
17987;SDS011;9119;50.932;5.342;2023-03-01T12:30:17;27.03;;;11.97;;
17987;SDS011;9119;50.932;5.342;2023-03-01T12:38:59;23.40;;;11.70;;
17987;SDS011;9119;50.932;5.342;2023-03-01T12:46:34;27.43;;;12.30;;
17987;SDS011;9119;50.932;5.342;2023-03-01T12:49:28;28.87;;;11.53;;
17987;SDS011;9119;50.932;5.342;2023-03-01T12:51:59;21.10;;;11.90;;
17987;SDS011;9119;50.932;5.342;2023-03-01T12:54:39;28.00;;;11.83;;
17987;SDS011;9119;50.932;5.342;2023-03-01T12:57:17;23.57;;;11.97;;
17987;SDS011;9119;50.932;5.342;2023-03-01T13:05:56;27.57;;;12.30;;
17987;SDS011;9119;50.932;5.342;2023-03-01T13:08:42;21.87;;;11.23;;
17987;SDS011;9119;50.932;5.342;2023-03-01T13:11:27;24.57;;;12.60;;
17987;SDS011;9119;50.932;5.342;2023-03-01T13:14:18;37.43;;;12.13;;
17987;SDS011;9119;50.932;5.342;2023-03-01T13:16:48;20.20;;;10.60;;
17987;SDS011;9119;50.932;5.342;2023-03-01T13:19:25;23.50;;;11.77;;
17987;SDS011;9119;50.932;5.342;2023-03-01T13:21:57;22.40;;;11.50;;
17987;SDS011;9119;50.932;5.342;2023-03-01T13:29:45;24.80;;;11.10;;
17987;SDS011;9119;50.932;5.342;2023-03-01T13:32:30;20.27;;;11.03;;
17987;SDS011;9119;50.932;5.342;2023-03-01T13:37:44;21.17;;;11.10;;
17987;SDS011;9119;50.932;5.342;2023-03-01T13:42:46;20.80;;;10.87;;
17987;SDS011;9119;50.932;5.342;2023-03-01T13:48:04;19.87;;;10.60;;
17987;SDS011;9119;50.932;5.342;2023-03-01T13:50:47;30.40;;;11.90;;
17987;SDS011;9119;50.932;5.342;2023-03-01T13:53:18;23.27;;;11.30;;
17987;SDS011;9119;50.932;5.342;2023-03-01T13:55:47;20.70;;;10.77;;
17987;SDS011;9119;50.932;5.342;2023-03-01T14:01:00;21.80;;;10.23;;
17987;SDS011;9119;50.932;5.342;2023-03-01T14:03:29;26.17;;;11.23;;
17987;SDS011;9119;50.932;5.342;2023-03-01T14:06:01;27.07;;;12.07;;
17987;SDS011;9119;50.932;5.342;2023-03-01T14:08:46;26.37;;;12.27;;
17987;SDS011;9119;50.932;5.342;2023-03-01T14:20:03;18.47;;;9.77;;
17987;SDS011;9119;50.932;5.342;2023-03-01T14:22:38;21.27;;;10.63;;
17987;SDS011;9119;50.932;5.342;2023-03-01T14:25:17;21.93;;;11.07;;
17987;SDS011;9119;50.932;5.342;2023-03-01T14:27:44;19.67;;;10.20;;
17987;SDS011;9119;50.932;5.342;2023-03-01T14:30:19;21.80;;;10.17;;
17987;SDS011;9119;50.932;5.342;2023-03-01T14:32:55;20.73;;;10.37;;
17987;SDS011;9119;50.932;5.342;2023-03-01T14:35:27;24.03;;;11.00;;
17987;SDS011;9119;50.932;5.342;2023-03-01T14:37:57;21.77;;;10.73;;
17987;SDS011;9119;50.932;5.342;2023-03-01T14:40:33;21.70;;;11.10;;
17987;SDS011;9119;50.932;5.342;2023-03-01T14:43:01;26.57;;;11.27;;
17987;SDS011;9119;50.932;5.342;2023-03-01T14:45:35;20.93;;;10.20;;
17987;SDS011;9119;50.932;5.342;2023-03-01T14:48:01;21.80;;;10.63;;
17987;SDS011;9119;50.932;5.342;2023-03-01T14:50:30;19.13;;;9.93;;
17987;SDS011;9119;50.932;5.342;2023-03-01T14:53:01;20.97;;;10.17;;
17987;SDS011;9119;50.932;5.342;2023-03-01T14:58:06;18.83;;;9.37;;
17987;SDS011;9119;50.932;5.342;2023-03-01T15:00:37;22.23;;;10.47;;
17987;SDS011;9119;50.932;5.342;2023-03-01T15:03:46;23.57;;;10.00;;
17987;SDS011;9119;50.932;5.342;2023-03-01T15:06:04;25.53;;;10.37;;
17987;SDS011;9119;50.932;5.342;2023-03-01T15:08:31;21.17;;;10.33;;
17987;SDS011;9119;50.932;5.342;2023-03-01T15:11:15;21.00;;;10.10;;
17987;SDS011;9119;50.932;5.342;2023-03-01T15:16:52;21.87;;;9.87;;
17987;SDS011;9119;50.932;5.342;2023-03-01T15:19:17;27.03;;;10.03;;
17987;SDS011;9119;50.932;5.342;2023-03-01T15:21:44;18.17;;;9.27;;
17987;SDS011;9119;50.932;5.342;2023-03-01T15:26:51;27.50;;;10.57;;
17987;SDS011;9119;50.932;5.342;2023-03-01T15:29:31;20.60;;;10.00;;
17987;SDS011;9119;50.932;5.342;2023-03-01T15:32:04;22.40;;;10.10;;
17987;SDS011;9119;50.932;5.342;2023-03-01T15:37:05;20.60;;;9.23;;
17987;SDS011;9119;50.932;5.342;2023-03-01T15:39:52;14.40;;;7.83;;
17987;SDS011;9119;50.932;5.342;2023-03-01T15:45:11;15.43;;;8.70;;
17987;SDS011;9119;50.932;5.342;2023-03-01T15:47:39;15.87;;;8.60;;
17987;SDS011;9119;50.932;5.342;2023-03-01T15:50:11;28.47;;;9.17;;
17987;SDS011;9119;50.932;5.342;2023-03-01T15:52:46;19.17;;;8.20;;
17987;SDS011;9119;50.932;5.342;2023-03-01T15:55:16;34.23;;;8.23;;
17987;SDS011;9119;50.932;5.342;2023-03-01T15:57:58;15.03;;;7.33;;
17987;SDS011;9119;50.932;5.342;2023-03-01T16:00:26;22.13;;;8.07;;
17987;SDS011;9119;50.932;5.342;2023-03-01T16:02:52;22.03;;;7.37;;
17987;SDS011;9119;50.932;5.342;2023-03-01T16:05:23;17.60;;;7.73;;
17987;SDS011;9119;50.932;5.342;2023-03-01T16:08:02;10.43;;;5.93;;
17987;SDS011;9119;50.932;5.342;2023-03-01T16:10:29;14.57;;;6.43;;
17987;SDS011;9119;50.932;5.342;2023-03-01T16:12:56;12.60;;;6.43;;
17987;SDS011;9119;50.932;5.342;2023-03-01T16:15:23;17.17;;;7.50;;
17987;SDS011;9119;50.932;5.342;2023-03-01T16:18:03;12.13;;;6.70;;
17987;SDS011;9119;50.932;5.342;2023-03-01T16:20:30;15.70;;;7.00;;
17987;SDS011;9119;50.932;5.342;2023-03-01T16:23:04;12.13;;;6.67;;
17987;SDS011;9119;50.932;5.342;2023-03-01T16:25:32;14.30;;;6.50;;
17987;SDS011;9119;50.932;5.342;2023-03-01T16:27:58;13.83;;;6.97;;
17987;SDS011;9119;50.932;5.342;2023-03-01T16:30:26;16.27;;;7.13;;
17987;SDS011;9119;50.932;5.342;2023-03-01T16:32:52;14.80;;;7.00;;
17987;SDS011;9119;50.932;5.342;2023-03-01T16:35:19;13.10;;;6.97;;
17987;SDS011;9119;50.932;5.342;2023-03-01T16:37:45;14.60;;;6.67;;
17987;SDS011;9119;50.932;5.342;2023-03-01T16:40:17;13.93;;;7.00;;
17987;SDS011;9119;50.932;5.342;2023-03-01T16:42:50;14.80;;;7.20;;
17987;SDS011;9119;50.932;5.342;2023-03-01T16:45:16;15.03;;;7.33;;
17987;SDS011;9119;50.932;5.342;2023-03-01T16:47:42;13.43;;;6.70;;
17987;SDS011;9119;50.932;5.342;2023-03-01T16:50:08;15.80;;;6.83;;
17987;SDS011;9119;50.932;5.342;2023-03-01T16:52:35;16.03;;;7.20;;
17987;SDS011;9119;50.932;5.342;2023-03-01T16:55:04;15.10;;;6.97;;
17987;SDS011;9119;50.932;5.342;2023-03-01T16:57:33;20.60;;;7.90;;
17987;SDS011;9119;50.932;5.342;2023-03-01T17:00:00;17.70;;;7.00;;